createdAt,value
2019-02-15T00:02:18.983Z,102187.88
2019-02-15T00:04:47.504Z,102184.86
2019-02-15T00:07:17.072Z,102188.06
2019-02-15T00:09:45.537Z,102183.74
2019-02-15T00:12:14.537Z,102184.79
2019-02-15T00:14:50.038Z,102189.06
2019-02-15T00:17:20.216Z,102181.55
2019-02-15T00:19:50.751Z,102181.66
2019-02-15T00:22:19.314Z,102180.58
2019-02-15T00:24:47.751Z,102184.27
2019-02-15T00:27:16.194Z,102182.30
2019-02-15T00:29:44.728Z,102178.00
2019-02-15T00:32:13.335Z,102177.90
2019-02-15T00:34:42.051Z,102173.77
2019-02-15T00:37:11.235Z,102173.91
2019-02-15T00:39:40.548Z,102174.39
2019-02-15T00:42:09.271Z,102177.27
2019-02-15T00:44:37.735Z,102172.13
2019-02-15T00:47:24.785Z,102172.72
2019-02-15T00:49:54.893Z,102174.98
2019-02-15T00:52:25.241Z,102169.28
2019-02-15T00:54:58.980Z,102164.16
2019-02-15T00:57:29.237Z,102163.92
2019-02-15T00:59:59.566Z,102162.23
2019-02-15T01:02:29.665Z,102168.25
2019-02-15T01:05:08.588Z,102161.31
2019-02-15T01:07:42.163Z,102164.50
2019-02-15T01:10:15.261Z,102169.22
2019-02-15T01:12:48.438Z,102154.98
2019-02-15T01:15:16.957Z,102166.13
2019-02-15T01:17:45.702Z,102161.42
2019-02-15T01:20:14.987Z,102155.21
2019-02-15T01:22:44.265Z,102151.22
2019-02-15T01:25:13.755Z,102149.89
2019-02-15T01:27:44.336Z,102151.33
2019-02-15T01:30:17.853Z,102152.95
2019-02-15T01:32:48.372Z,102146.18
2019-02-15T01:35:24.903Z,102150.33
2019-02-15T01:37:55.396Z,102153.20
2019-02-15T01:40:38.264Z,102143.73
2019-02-15T01:43:26.785Z,102144.31
2019-02-15T01:45:57.167Z,102139.42
2019-02-15T01:48:25.872Z,102139.36
2019-02-15T01:50:55.004Z,102133.98
2019-02-15T01:53:23.841Z,102129.99
2019-02-15T01:55:52.634Z,102137.23
2019-02-15T01:58:21.357Z,102126.09
2019-02-15T02:00:50.575Z,102130.33
2019-02-15T02:03:19.111Z,102125.66
2019-02-15T02:05:48.004Z,102124.39
2019-02-15T02:08:18.522Z,102117.53
2019-02-15T02:10:48.179Z,102115.50
2019-02-15T02:13:35.840Z,102112.02
2019-02-15T02:16:23.470Z,102110.30
2019-02-15T02:18:51.924Z,102113.72
2019-02-15T02:24:07.961Z,102117.56
2019-02-15T02:26:36.412Z,102106.22
2019-02-15T02:29:04.849Z,102103.97
2019-02-15T02:34:27.866Z,102099.58
2019-02-15T02:37:36.280Z,102102.41
2019-02-15T02:40:44.750Z,102102.25
2019-02-15T02:43:13.180Z,102097.69
2019-02-15T02:45:41.704Z,102094.77
2019-02-15T02:48:10.162Z,102096.64
2019-02-15T02:50:38.599Z,102093.69
2019-02-15T02:53:07.035Z,102094.33
2019-02-15T02:55:35.482Z,102093.63
2019-02-15T02:58:23.103Z,102090.42
2019-02-15T03:00:51.568Z,102086.12
2019-02-15T03:03:20.002Z,102091.27
2019-02-15T03:05:48.433Z,102084.19
2019-02-15T03:08:16.894Z,102083.36
2019-02-15T03:10:45.421Z,102083.96
2019-02-15T03:13:13.846Z,102081.58
2019-02-15T03:15:42.658Z,102086.72
2019-02-15T03:18:11.087Z,102085.96
2019-02-15T03:20:39.520Z,102079.62
2019-02-15T03:23:27.485Z,102087.19
2019-02-15T03:25:55.909Z,102084.31
2019-02-15T03:28:24.442Z,102083.50
2019-02-15T03:30:52.944Z,102081.23
2019-02-15T03:33:21.553Z,102077.89
2019-02-15T03:35:54.363Z,102079.38
2019-02-15T03:38:43.046Z,102075.48
2019-02-15T03:41:15.974Z,102072.12
2019-02-15T03:43:44.412Z,102071.45
2019-02-15T03:46:12.959Z,102069.69
2019-02-15T03:48:41.395Z,102074.31
2019-02-15T03:51:09.821Z,102071.96
2019-02-15T03:53:38.532Z,102070.58
2019-02-15T03:56:07.043Z,102073.99
2019-02-15T03:58:35.610Z,102072.28
2019-02-15T04:01:04.165Z,102071.96
2019-02-15T04:03:32.751Z,102067.72
2019-02-15T04:06:01.590Z,102071.80
2019-02-15T04:08:30.102Z,102071.04
2019-02-15T04:10:58.561Z,102078.52
2019-02-15T04:13:26.959Z,102086.27
2019-02-15T04:15:55.550Z,102079.94
2019-02-15T04:18:24.068Z,102083.31
2019-02-15T04:20:52.672Z,102079.41
2019-02-15T04:23:21.143Z,102077.70
2019-02-15T04:25:49.557Z,102078.63
2019-02-15T04:28:18.157Z,102078.86
2019-02-15T04:30:46.613Z,102081.57
2019-02-15T04:33:15.052Z,102086.23
2019-02-15T04:35:43.577Z,102089.47
2019-02-15T04:38:12.145Z,102089.81
2019-02-15T04:40:40.573Z,102088.59
2019-02-15T04:43:09.094Z,102092.98
2019-02-15T04:45:37.635Z,102096.52
2019-02-15T04:48:06.085Z,102095.99
2019-02-15T04:50:34.502Z,102097.24
2019-02-15T04:53:03.338Z,102095.59
2019-02-15T04:55:31.762Z,102092.02
2019-02-15T04:58:00.280Z,102098.27
2019-02-15T05:00:28.749Z,102100.46
2019-02-15T05:02:57.269Z,102091.84
2019-02-15T05:05:25.680Z,102101.72
2019-02-15T05:07:54.235Z,102100.95
2019-02-15T05:10:22.665Z,102101.16
2019-02-15T05:12:51.121Z,102098.43
2019-02-15T05:15:19.580Z,102096.77
2019-02-15T05:17:48.004Z,102103.63
2019-02-15T05:20:16.729Z,102099.56
2019-02-15T05:22:45.188Z,102104.59
2019-02-15T05:25:13.619Z,102106.47
2019-02-15T05:27:42.142Z,102110.16
2019-02-15T05:30:10.684Z,102105.03
2019-02-15T05:32:39.165Z,102110.52
2019-02-15T05:35:07.672Z,102108.50
2019-02-15T05:37:36.414Z,102106.80
2019-02-15T05:40:05.776Z,102103.22
2019-02-15T05:42:34.200Z,102106.72
2019-02-15T05:45:04.135Z,102105.41
2019-02-15T05:47:32.834Z,102104.20
2019-02-15T05:50:01.273Z,102105.41
2019-02-15T05:52:30.053Z,102105.50
2019-02-15T05:54:58.530Z,102108.58
2019-02-15T05:57:26.946Z,102108.99
2019-02-15T05:59:55.426Z,102117.65
2019-02-15T06:02:23.945Z,102112.20
2019-02-15T06:04:52.372Z,102111.27
2019-02-15T06:07:21.002Z,102114.11
2019-02-15T06:09:49.441Z,102118.91
2019-02-15T06:12:17.941Z,102114.75
2019-02-15T06:14:46.541Z,102121.70
2019-02-15T06:17:14.973Z,102121.19
2019-02-15T06:19:43.402Z,102113.91
2019-02-15T06:22:11.999Z,102115.30
2019-02-15T06:24:40.720Z,102115.49
2019-02-15T06:27:09.164Z,102116.78
2019-02-15T06:29:37.604Z,102122.80
2019-02-15T06:32:06.038Z,102119.80
2019-02-15T06:34:34.493Z,102124.75
2019-02-15T06:37:03.032Z,102125.48
2019-02-15T06:39:31.466Z,102124.83
2019-02-15T06:41:59.895Z,102124.23
2019-02-15T06:44:28.368Z,102122.89
2019-02-15T06:46:56.784Z,102122.69
2019-02-15T06:49:25.251Z,102126.26
2019-02-15T06:51:53.816Z,102132.05
2019-02-15T06:54:22.252Z,102133.66
2019-02-15T06:56:50.676Z,102136.99
2019-02-15T06:59:20.945Z,102136.99
2019-02-15T07:02:02.660Z,102141.53
2019-02-15T07:04:41.398Z,102148.48
2019-02-15T07:07:10.013Z,102141.78
2019-02-15T07:09:38.776Z,102148.25
2019-02-15T07:12:07.232Z,102145.81
2019-02-15T07:14:35.947Z,102143.78
2019-02-15T07:17:04.441Z,102144.06
2019-02-15T07:19:32.910Z,102140.33
2019-02-15T07:22:01.699Z,102140.84
2019-02-15T07:24:30.232Z,102141.66
2019-02-15T07:26:58.696Z,102145.99
2019-02-15T07:29:27.129Z,102145.45
2019-02-15T07:31:55.827Z,102148.63
2019-02-15T07:34:24.286Z,102148.55
2019-02-15T07:36:52.717Z,102145.63
2019-02-15T07:39:21.150Z,102146.44
2019-02-15T07:41:49.619Z,102151.17
2019-02-15T07:44:18.053Z,102140.40
2019-02-15T07:46:46.818Z,102143.00
2019-02-15T07:49:15.294Z,102147.06
2019-02-15T07:51:43.822Z,102144.02
2019-02-15T07:54:12.253Z,102146.09
2019-02-15T07:56:41.283Z,102139.30
2019-02-15T07:59:09.681Z,102141.56
2019-02-15T08:01:38.119Z,102144.93
2019-02-15T08:04:06.949Z,102141.75
2019-02-15T08:06:35.692Z,102141.66
2019-02-15T08:09:07.189Z,102138.81
2019-02-15T08:11:35.641Z,102133.63
2019-02-15T08:14:04.078Z,102127.42
2019-02-15T08:16:32.514Z,102133.53
2019-02-15T08:19:00.983Z,102132.74
2019-02-15T08:21:29.490Z,102136.76
2019-02-15T08:23:57.928Z,102128.25
2019-02-15T08:26:26.807Z,102124.89
2019-02-15T08:28:55.253Z,102127.90
2019-02-15T08:31:23.693Z,102121.03
2019-02-15T08:33:52.677Z,102120.78
2019-02-15T08:36:21.480Z,102121.03
2019-02-15T08:38:49.891Z,102123.47
2019-02-15T08:41:18.356Z,102117.11
2019-02-15T08:43:47.222Z,102115.43
2019-02-15T08:46:15.750Z,102112.53
2019-02-15T08:48:46.173Z,102112.44
2019-02-15T08:51:14.366Z,102110.80
2019-02-15T08:53:42.797Z,102106.47
2019-02-15T08:56:11.705Z,102108.73
2019-02-15T08:58:40.182Z,102101.09
2019-02-15T09:01:08.617Z,102105.19
2019-02-15T09:03:37.936Z,102102.68
2019-02-15T09:06:06.393Z,102096.34
2019-02-15T09:08:34.826Z,102099.58
2019-02-15T09:11:03.313Z,102097.38
2019-02-15T09:13:31.760Z,102103.94
2019-02-15T09:16:00.216Z,102100.45
2019-02-15T09:18:28.799Z,102097.27
2019-02-15T09:20:57.300Z,102101.69
2019-02-15T09:23:26.686Z,102095.13
2019-02-15T09:25:55.144Z,102099.87
2019-02-15T09:28:29.152Z,102091.09
2019-02-15T09:30:57.726Z,102096.28
2019-02-15T09:33:26.972Z,102097.15
2019-02-15T09:35:55.492Z,102095.77
2019-02-15T09:38:24.242Z,102094.16
2019-02-15T09:40:52.977Z,102089.45
2019-02-15T09:43:21.768Z,102087.89
2019-02-15T09:45:50.152Z,102085.55
2019-02-15T09:48:18.833Z,102084.95
2019-02-15T09:50:47.281Z,102081.37
2019-02-15T09:53:15.716Z,102082.38
2019-02-15T09:55:44.183Z,102084.70
2019-02-15T09:58:12.708Z,102079.32
2019-02-15T10:00:41.134Z,102076.88
2019-02-15T10:03:09.605Z,102074.59
2019-02-15T10:05:38.143Z,102076.83
2019-02-15T10:08:06.638Z,102071.20
2019-02-15T10:10:35.415Z,102073.55
2019-02-15T10:13:03.917Z,102070.19
2019-02-15T10:15:32.693Z,102070.78
2019-02-15T10:18:01.161Z,102065.96
2019-02-15T10:20:29.578Z,102068.27
2019-02-15T10:22:58.007Z,102061.31
2019-02-15T10:25:26.759Z,102061.91
2019-02-15T10:27:55.279Z,102059.93
2019-02-15T10:30:24.010Z,102055.93
2019-02-15T10:32:52.476Z,102050.70
2019-02-15T10:35:21.260Z,102057.72
2019-02-15T10:37:49.688Z,102052.45
2019-02-15T10:40:18.155Z,102048.85
2019-02-15T10:42:46.904Z,102046.13
2019-02-15T10:45:16.266Z,102047.42
2019-02-15T10:47:44.742Z,102041.56
2019-02-15T10:50:13.463Z,102050.10
2019-02-15T10:52:41.954Z,102035.38
2019-02-15T10:55:10.560Z,102042.19
2019-02-15T10:57:39.076Z,102041.64
2019-02-15T11:00:15.224Z,102033.89
2019-02-15T11:02:43.972Z,102028.12
2019-02-15T11:05:12.181Z,102032.78
2019-02-15T11:07:40.959Z,102020.81
2019-02-15T11:10:10.332Z,102023.31
2019-02-15T11:12:38.760Z,102022.20
2019-02-15T11:15:10.521Z,102018.60
2019-02-15T11:17:38.945Z,102016.76
2019-02-15T11:20:10.674Z,102007.22
2019-02-15T11:22:39.640Z,102005.34
2019-02-15T11:25:10.315Z,102006.72
2019-02-15T11:27:38.771Z,102000.21
2019-02-15T11:30:13.157Z,101997.70
2019-02-15T11:32:41.589Z,101994.81
2019-02-15T11:35:14.591Z,101993.37
2019-02-15T11:37:43.041Z,101985.64
2019-02-15T11:40:15.768Z,101983.56
2019-02-15T11:42:44.193Z,101980.72
2019-02-15T11:45:14.017Z,101984.14
2019-02-15T11:47:42.449Z,101972.30
2019-02-15T11:50:12.524Z,101969.16
2019-02-15T11:52:41.269Z,101959.64
2019-02-15T11:55:11.098Z,101957.91
2019-02-15T11:57:39.566Z,101955.72
2019-02-15T12:00:23.320Z,101949.97
2019-02-15T12:02:52.087Z,101948.42
2019-02-15T12:05:20.853Z,101942.27
2019-02-15T12:07:49.409Z,101940.88
2019-02-15T12:10:17.942Z,101935.61
2019-02-15T12:12:46.424Z,101934.72
2019-02-15T12:15:15.006Z,101925.53
2019-02-15T12:17:43.438Z,101928.72
2019-02-15T12:20:13.710Z,101924.75
2019-02-15T12:22:42.238Z,101922.98
2019-02-15T12:25:10.912Z,101919.88
2019-02-15T12:27:39.345Z,101908.42
2019-02-15T12:30:10.529Z,101908.45
2019-02-15T12:32:38.962Z,101904.49
2019-02-15T12:35:08.997Z,101904.02
2019-02-15T12:37:37.520Z,101901.41
2019-02-15T12:40:07.993Z,101899.19
2019-02-15T12:42:36.426Z,101891.66
2019-02-15T12:45:07.621Z,101884.14
2019-02-15T12:47:36.514Z,101880.16
2019-02-15T12:50:10.772Z,101881.05
2019-02-15T12:52:39.249Z,101881.03
2019-02-15T12:55:07.821Z,101875.27
2019-02-15T12:57:36.422Z,101866.41
2019-02-15T13:00:15.451Z,101863.31
2019-02-15T13:02:44.288Z,101868.20
2019-02-15T13:05:13.831Z,101864.21
2019-02-15T13:07:42.765Z,101861.52
2019-02-15T13:10:22.700Z,101856.22
2019-02-15T13:12:51.582Z,101853.56
2019-02-15T13:15:20.024Z,101845.56
2019-02-15T13:17:48.550Z,101835.80
2019-02-15T13:20:17.440Z,101838.88
2019-02-15T13:22:45.968Z,101836.63
2019-02-15T13:25:14.610Z,101822.80
2019-02-15T13:27:43.069Z,101817.50
2019-02-15T13:30:13.702Z,101816.08
2019-02-15T13:32:42.540Z,101811.16
2019-02-15T13:35:14.045Z,101806.31
2019-02-15T13:37:42.796Z,101800.98
2019-02-15T13:40:11.304Z,101802.34
2019-02-15T13:42:39.755Z,101801.81
2019-02-15T13:45:10.924Z,101803.96
2019-02-15T13:47:39.331Z,101792.41
2019-02-15T13:50:10.787Z,101793.27
2019-02-15T13:52:39.251Z,101782.97
2019-02-15T13:55:08.892Z,101775.00
2019-02-15T13:57:38.342Z,101776.60
2019-02-15T14:00:10.072Z,101766.19
2019-02-15T14:02:38.555Z,101770.52
2019-02-15T14:05:09.848Z,101770.89
2019-02-15T14:07:38.271Z,101766.08
2019-02-15T14:10:12.272Z,101765.59
2019-02-15T14:12:41.084Z,101759.00
2019-02-15T14:15:11.252Z,101758.45
2019-02-15T14:17:44.962Z,101752.64
2019-02-15T14:20:12.039Z,101751.65
2019-02-15T14:22:40.469Z,101751.28
2019-02-15T14:25:11.482Z,101750.30
2019-02-15T14:27:40.325Z,101753.56
2019-02-15T14:30:13.756Z,101750.06
2019-02-15T14:32:42.181Z,101738.39
2019-02-15T14:35:12.720Z,101742.84
2019-02-15T14:37:41.145Z,101733.09
2019-02-15T14:40:11.580Z,101736.19
2019-02-15T14:42:40.107Z,101741.84
2019-02-15T14:45:12.948Z,101735.74
2019-02-15T14:47:41.376Z,101736.66
2019-02-15T14:50:11.073Z,101740.17
2019-02-15T14:52:40.515Z,101731.30
2019-02-15T14:55:12.784Z,101729.40
2019-02-15T14:57:41.232Z,101727.94
2019-02-15T15:00:13.925Z,101723.09
2019-02-15T15:02:42.658Z,101716.04
2019-02-15T15:05:13.492Z,101716.83
2019-02-15T15:07:41.998Z,101713.62
2019-02-15T15:10:11.455Z,101716.77
2019-02-15T15:12:40.165Z,101708.37
2019-02-15T15:15:13.641Z,101708.28
2019-02-15T15:17:42.225Z,101703.92
2019-02-15T15:20:12.041Z,101704.30
2019-02-15T15:22:40.542Z,101707.81
2019-02-15T15:25:13.467Z,101705.62
2019-02-15T15:27:41.929Z,101703.02
2019-02-15T15:30:29.719Z,101700.38
2019-02-15T15:35:32.605Z,101695.63
2019-02-15T15:38:01.068Z,101696.10
2019-02-15T15:40:29.510Z,101692.03
2019-02-15T15:42:58.045Z,101689.41
2019-02-15T15:45:45.625Z,101691.72
2019-02-15T15:48:22.499Z,101685.10
2019-02-15T15:50:44.580Z,101679.40
2019-02-15T15:53:13.028Z,101685.66
2019-02-15T15:55:41.459Z,101676.81
2019-02-15T15:58:10.223Z,101677.28
2019-02-15T16:00:58.116Z,101671.50
2019-02-15T16:03:26.864Z,101672.47
2019-02-15T16:05:55.297Z,101668.52
2019-02-15T16:08:23.757Z,101674.30
2019-02-15T16:10:52.491Z,101666.98
2019-02-15T16:13:20.920Z,101667.08
2019-02-15T16:15:49.377Z,101668.08
2019-02-15T16:18:17.818Z,101665.89
2019-02-15T16:20:46.238Z,101664.72
2019-02-15T16:23:14.837Z,101663.08
2019-02-15T16:25:43.276Z,101661.80
2019-02-15T16:28:11.720Z,101655.34
2019-02-15T16:33:13.946Z,101656.05
2019-02-15T16:38:35.340Z,101658.44
2019-02-15T16:41:04.166Z,101663.34
2019-02-15T16:43:32.588Z,101656.78
2019-02-15T16:46:01.113Z,101661.22
2019-02-15T16:48:29.581Z,101657.21
2019-02-15T16:50:58.014Z,101663.40
2019-02-15T16:53:26.552Z,101661.20
2019-02-15T16:55:55.012Z,101662.52
2019-02-15T16:58:23.444Z,101659.84
2019-02-15T17:00:51.969Z,101656.61
2019-02-15T17:03:20.529Z,101657.09
2019-02-15T17:05:49.297Z,101657.88
2019-02-15T17:08:17.810Z,101663.86
2019-02-15T17:10:46.365Z,101665.34
2019-02-15T17:13:15.140Z,101665.35
2019-02-15T17:15:43.558Z,101665.92
2019-02-15T17:18:12.104Z,101672.07
2019-02-15T17:20:40.523Z,101668.08
2019-02-15T17:23:08.967Z,101669.47
2019-02-15T17:25:37.513Z,101660.70
2019-02-15T17:28:05.936Z,101664.01
2019-02-15T17:30:53.848Z,101668.73
2019-02-15T17:33:22.358Z,101666.25
2019-02-15T17:35:50.790Z,101664.15
2019-02-15T17:40:53.086Z,101666.97
2019-02-15T17:43:40.801Z,101664.52
2019-02-15T17:46:09.235Z,101665.36
2019-02-15T17:48:37.659Z,101663.73
2019-02-15T17:51:25.303Z,101668.25
2019-02-15T17:53:53.835Z,101656.73
2019-02-15T17:56:41.818Z,101656.60
2019-02-15T17:59:10.229Z,101654.95
2019-02-15T18:01:38.659Z,101653.01
2019-02-15T18:04:07.108Z,101662.08
2019-02-15T18:06:35.665Z,101657.48
2019-02-15T18:09:44.122Z,101660.02
2019-02-15T18:12:12.551Z,101653.72
2019-02-15T18:14:40.980Z,101658.13
2019-02-15T18:17:09.474Z,101663.59
2019-02-15T18:19:46.930Z,101658.96
2019-02-15T18:22:27.472Z,101666.27
2019-02-15T18:24:55.894Z,101667.55
2019-02-15T18:27:24.769Z,101658.69
2019-02-15T18:29:53.557Z,101658.69
2019-02-15T18:32:22.130Z,101653.52
2019-02-15T18:40:33.037Z,101657.63
2019-02-15T18:43:01.671Z,101651.61
2019-02-15T18:45:30.204Z,101648.30
2019-02-15T18:48:18.381Z,101651.61
2019-02-15T18:51:06.181Z,101651.97
2019-02-15T18:53:53.877Z,101649.70
2019-02-15T18:56:41.701Z,101648.39
2019-02-15T18:59:30.309Z,101643.76
2019-02-15T19:02:18.097Z,101644.83
2019-02-15T19:10:54.442Z,101646.89
2019-02-15T19:13:42.267Z,101641.81
2019-02-15T19:16:30.053Z,101641.98
2019-02-15T19:19:17.883Z,101632.09
2019-02-15T19:22:05.735Z,101634.54
2019-02-15T19:27:47.635Z,101634.48
2019-02-15T19:30:56.447Z,101638.19
2019-02-15T19:33:44.124Z,101636.48
2019-02-15T19:36:31.811Z,101634.94
2019-02-15T19:39:40.258Z,101634.87
2019-02-15T19:42:29.610Z,101631.78
2019-02-15T19:48:45.127Z,101635.64
2019-02-15T19:51:35.880Z,101639.76
2019-02-15T19:54:23.706Z,101640.55
2019-02-15T19:57:11.436Z,101638.89
2019-02-15T20:03:06.022Z,101635.50
2019-02-15T20:06:13.251Z,101634.19
2019-02-15T20:09:01.035Z,101638.38
2019-02-15T20:11:31.826Z,101632.20
2019-02-15T20:14:19.631Z,101629.80
2019-02-15T20:17:07.516Z,101634.27
2019-02-15T20:19:55.248Z,101626.07
2019-02-15T20:22:43.185Z,101626.50
2019-02-15T20:31:37.006Z,101632.22
2019-02-15T20:34:24.895Z,101628.39
2019-02-15T20:37:12.803Z,101637.08
2019-02-15T20:40:00.697Z,101631.75
2019-02-15T20:43:09.264Z,101630.66
2019-02-15T20:48:44.977Z,101627.27
2019-02-15T20:51:13.588Z,101621.82
2019-02-15T20:54:01.561Z,101620.66
2019-02-15T20:56:49.359Z,101619.02
2019-02-15T20:59:37.258Z,101624.69
2019-02-15T21:02:25.804Z,101623.89
2019-02-15T21:05:13.602Z,101617.77
2019-02-15T21:08:01.745Z,101618.52
2019-02-15T21:10:55.023Z,101622.22
2019-02-15T21:13:20.701Z,101618.58
2019-02-15T21:19:16.170Z,101612.59
2019-02-15T21:22:04.090Z,101617.26
2019-02-15T21:24:51.887Z,101614.75
2019-02-15T21:30:13.274Z,101615.22
2019-02-15T21:33:01.065Z,101613.58
2019-02-15T21:35:49.296Z,101610.88
2019-02-15T21:38:36.881Z,101615.16
2019-02-15T21:41:24.589Z,101611.09
2019-02-15T21:44:12.302Z,101614.93
2019-02-15T21:47:00.123Z,101610.95
2019-02-15T21:49:48.210Z,101611.62
2019-02-15T21:52:16.715Z,101607.13
2019-02-15T21:58:00.846Z,101607.45
2019-02-15T22:01:02.263Z,101606.86
2019-02-15T22:06:23.861Z,101601.82
2019-02-15T22:08:52.328Z,101603.26
2019-02-15T22:11:40.187Z,101605.61
2019-02-15T22:14:08.743Z,101609.50
2019-02-15T22:16:37.513Z,101601.69
2019-02-15T22:19:06.068Z,101601.55
2019-02-15T22:24:22.060Z,101588.44
2019-02-15T22:26:50.792Z,101590.53
2019-02-15T22:29:38.734Z,101594.97
2019-02-15T22:32:07.256Z,101588.78
2019-02-15T22:34:36.612Z,101593.98
2019-02-15T22:37:05.072Z,101597.59
2019-02-15T22:39:33.502Z,101593.48
2019-02-15T22:42:21.245Z,101592.67
2019-02-15T22:44:49.770Z,101592.64
2019-02-15T22:47:18.287Z,101595.77
2019-02-15T22:49:46.995Z,101589.41
2019-02-15T22:52:17.091Z,101591.48
2019-02-15T22:54:45.517Z,101582.92
2019-02-15T22:57:13.968Z,101594.66
2019-02-15T22:59:42.485Z,101585.33
2019-02-15T23:02:50.876Z,101586.89
2019-02-15T23:05:19.466Z,101583.34
2019-02-15T23:08:07.119Z,101581.89
2019-02-15T23:10:35.620Z,101581.28
2019-02-15T23:16:12.374Z,101576.42
2019-02-15T23:18:40.809Z,101574.84
2019-02-15T23:21:09.255Z,101576.67
2019-02-15T23:23:37.979Z,101572.80
2019-02-15T23:26:06.411Z,101580.39
2019-02-15T23:28:34.843Z,101576.67
2019-02-15T23:31:22.628Z,101577.45
2019-02-15T23:33:51.053Z,101575.53
2019-02-15T23:36:19.573Z,101573.90
2019-02-15T23:38:48.030Z,101571.23
2019-02-15T23:41:16.532Z,101579.89
2019-02-15T23:43:44.953Z,101574.95
2019-02-15T23:46:13.421Z,101577.98
2019-02-15T23:49:00.991Z,101570.45
2019-02-15T23:51:29.783Z,101574.73
2019-02-15T23:53:58.560Z,101572.48
2019-02-15T23:56:26.984Z,101577.80
2019-02-15T23:58:55.460Z,101575.80
